Riverside, CA

7:56 PM PST on February 09, 2016 (GMT -0800)
Wood Streets | | Change Station
CLOSE
Current Station
Personal Weather Station
Location: Riverside, CA
Elevation: 879 ft
Nearby Weather Stations

Elev 879 ft 33.97 °N, 117.39 °W | Updated 15 seconds ago

Clear
Clear
70.9 °F
Feels Like 74 °F
N
0.0
Wind Variable Wind from North
Gusts 0.0 mph

Today
High -- | Low -- °F
--% Chance of Precip.
Yesterday
High -- | Low -- °F
Precip. -- in
Pressure 30.07 in
Visibility 10.0 miles
Clouds Clear
Heat Index 74 °F
Dew Point 28 °F
Humidity 20%
Rainfall 0.00 in
Snow Depth Not available.
6:40 AM 5:27 PM
Waxing Crescent, 3% visible
METAR KRAL 100353Z AUTO 08005KT 10SM CLR 23/M06 A3011 RMK AO2 SLP183 T02281056
Pressure 30.07 in
Visibility 10.0 miles
Clouds Clear
Heat Index 74 °F
Dew Point 28 °F
Humidity 20%
Rainfall 0.00 in
Snow Depth Not available.
6:40 AM 5:27 PM
Waxing Crescent, 3% visible
METAR KRAL 100353Z AUTO 08005KT 10SM CLR 23/M06 A3011 RMK AO2 SLP183 T02281056

10-Day Weather Forecast

Almanac

Astronomy

Feb. 09, 2016 Rise Set
Actual Time
Civil Twilight
Nautical Twilight
Astronomical Twilight
Moon
Length of Visible Light
Length of Day
Tomorrow will be .
, % of the Moon is Illuminated

Today's Extremes

State Highs State Lows

Community

WunderPhotos

Upload Photos

1,891,792 photos uploaded!

WunderBlog® & News

Nearby

Air Quality

  Air Quality AQ Index Pollutant
Not available.

Snow Depth

Station Depth Elevation

Earthquake Activity

City Distance Mag. Time & Date
Minimum magnitude displayed is 2.5.

Coastal Water Temperatures

Place Temperature

Stations

Nearby Weather Stations

Station Location Temp. Windchill Dew Point Humidity Wind Precip. Elev Updated Type
                   

Watches & Warnings

There are currently no watches in effect.